sensor_id;sensor_type;location;lat;lon;timestamp;P1;durP1;ratioP1;P2;durP2;ratioP2
52724;SDS011;38621;52.830;6.914;2022-08-05T00:00:02;4.57;;;2.42;;
52724;SDS011;38621;52.830;6.914;2022-08-05T00:02:29;5.90;;;2.63;;
52724;SDS011;38621;52.830;6.914;2022-08-05T00:04:55;5.13;;;2.58;;
52724;SDS011;38621;52.830;6.914;2022-08-05T00:07:21;3.30;;;2.30;;
52724;SDS011;38621;52.830;6.914;2022-08-05T00:09:47;4.60;;;2.58;;
52724;SDS011;38621;52.830;6.914;2022-08-05T00:12:12;3.10;;;2.58;;
52724;SDS011;38621;52.830;6.914;2022-08-05T00:14:38;4.63;;;2.65;;
52724;SDS011;38621;52.830;6.914;2022-08-05T00:17:04;4.25;;;2.80;;
52724;SDS011;38621;52.830;6.914;2022-08-05T00:19:29;4.78;;;2.60;;
52724;SDS011;38621;52.830;6.914;2022-08-05T00:21:55;5.90;;;2.67;;
52724;SDS011;38621;52.830;6.914;2022-08-05T00:24:21;5.57;;;2.58;;
52724;SDS011;38621;52.830;6.914;2022-08-05T00:26:47;3.70;;;2.50;;
52724;SDS011;38621;52.830;6.914;2022-08-05T00:29:13;4.18;;;2.80;;
52724;SDS011;38621;52.830;6.914;2022-08-05T00:31:38;4.80;;;2.90;;
52724;SDS011;38621;52.830;6.914;2022-08-05T00:34:04;9.73;;;3.10;;
52724;SDS011;38621;52.830;6.914;2022-08-05T00:36:30;4.00;;;3.08;;
52724;SDS011;38621;52.830;6.914;2022-08-05T00:38:56;4.97;;;3.00;;
52724;SDS011;38621;52.830;6.914;2022-08-05T00:41:28;6.35;;;3.25;;
52724;SDS011;38621;52.830;6.914;2022-08-05T00:43:58;5.10;;;2.92;;
52724;SDS011;38621;52.830;6.914;2022-08-05T00:46:24;4.05;;;2.83;;
52724;SDS011;38621;52.830;6.914;2022-08-05T00:48:50;7.35;;;3.22;;
52724;SDS011;38621;52.830;6.914;2022-08-05T00:51:17;5.35;;;3.50;;
52724;SDS011;38621;52.830;6.914;2022-08-05T00:53:44;4.65;;;3.30;;
52724;SDS011;38621;52.830;6.914;2022-08-05T00:56:10;5.20;;;3.22;;
52724;SDS011;38621;52.830;6.914;2022-08-05T00:58:36;5.20;;;3.25;;
52724;SDS011;38621;52.830;6.914;2022-08-05T01:01:02;6.05;;;3.20;;
52724;SDS011;38621;52.830;6.914;2022-08-05T01:03:29;4.78;;;2.80;;
52724;SDS011;38621;52.830;6.914;2022-08-05T01:05:54;5.05;;;3.22;;
52724;SDS011;38621;52.830;6.914;2022-08-05T01:08:20;5.63;;;2.95;;
52724;SDS011;38621;52.830;6.914;2022-08-05T01:10:54;7.43;;;3.28;;
52724;SDS011;38621;52.830;6.914;2022-08-05T01:14:25;4.60;;;3.00;;
52724;SDS011;38621;52.830;6.914;2022-08-05T01:19:10;4.20;;;2.80;;
52724;SDS011;38621;52.830;6.914;2022-08-05T01:22:09;4.10;;;2.75;;
52724;SDS011;38621;52.830;6.914;2022-08-05T01:30:25;4.05;;;3.00;;
52724;SDS011;38621;52.830;6.914;2022-08-05T01:32:53;5.13;;;3.22;;
52724;SDS011;38621;52.830;6.914;2022-08-05T01:35:21;6.13;;;3.47;;
52724;SDS011;38621;52.830;6.914;2022-08-05T01:37:51;4.07;;;2.92;;
52724;SDS011;38621;52.830;6.914;2022-08-05T01:40:21;4.90;;;2.75;;
52724;SDS011;38621;52.830;6.914;2022-08-05T01:42:50;4.57;;;3.10;;
52724;SDS011;38621;52.830;6.914;2022-08-05T01:45:17;4.78;;;3.22;;
52724;SDS011;38621;52.830;6.914;2022-08-05T01:47:45;4.97;;;3.38;;
52724;SDS011;38621;52.830;6.914;2022-08-05T01:50:24;4.75;;;2.88;;
52724;SDS011;38621;52.830;6.914;2022-08-05T01:53:00;5.03;;;3.17;;
52724;SDS011;38621;52.830;6.914;2022-08-05T01:55:29;4.68;;;3.03;;
52724;SDS011;38621;52.830;6.914;2022-08-05T01:57:57;5.85;;;3.40;;
52724;SDS011;38621;52.830;6.914;2022-08-05T02:00:25;6.30;;;3.17;;
52724;SDS011;38621;52.830;6.914;2022-08-05T02:03:15;6.13;;;3.10;;
52724;SDS011;38621;52.830;6.914;2022-08-05T02:05:49;4.93;;;3.28;;
52724;SDS011;38621;52.830;6.914;2022-08-05T02:08:17;4.40;;;3.03;;
52724;SDS011;38621;52.830;6.914;2022-08-05T02:10:46;4.60;;;3.28;;
52724;SDS011;38621;52.830;6.914;2022-08-05T02:13:16;5.28;;;3.05;;
52724;SDS011;38621;52.830;6.914;2022-08-05T02:16:00;4.18;;;3.00;;
52724;SDS011;38621;52.830;6.914;2022-08-05T02:18:31;5.45;;;3.50;;
52724;SDS011;38621;52.830;6.914;2022-08-05T02:21:47;3.97;;;2.80;;
52724;SDS011;38621;52.830;6.914;2022-08-05T02:23:55;4.60;;;2.90;;
52724;SDS011;38621;52.830;6.914;2022-08-05T02:26:54;6.93;;;3.28;;
52724;SDS011;38621;52.830;6.914;2022-08-05T02:29:21;5.60;;;3.53;;
52724;SDS011;38621;52.830;6.914;2022-08-05T02:31:50;5.80;;;3.20;;
52724;SDS011;38621;52.830;6.914;2022-08-05T02:34:21;4.75;;;3.15;;
52724;SDS011;38621;52.830;6.914;2022-08-05T02:36:51;6.10;;;3.30;;
52724;SDS011;38621;52.830;6.914;2022-08-05T02:39:20;4.45;;;3.00;;
52724;SDS011;38621;52.830;6.914;2022-08-05T02:41:47;4.43;;;3.17;;
52724;SDS011;38621;52.830;6.914;2022-08-05T02:44:14;4.55;;;3.40;;
52724;SDS011;38621;52.830;6.914;2022-08-05T02:46:43;3.90;;;3.08;;
52724;SDS011;38621;52.830;6.914;2022-08-05T02:49:11;5.70;;;3.65;;
52724;SDS011;38621;52.830;6.914;2022-08-05T02:51:39;5.47;;;3.80;;
52724;SDS011;38621;52.830;6.914;2022-08-05T02:54:06;4.93;;;3.17;;
52724;SDS011;38621;52.830;6.914;2022-08-05T02:56:34;5.90;;;3.05;;
52724;SDS011;38621;52.830;6.914;2022-08-05T02:59:00;4.93;;;3.17;;
52724;SDS011;38621;52.830;6.914;2022-08-05T03:01:28;6.40;;;3.78;;
52724;SDS011;38621;52.830;6.914;2022-08-05T03:03:57;4.57;;;3.47;;
52724;SDS011;38621;52.830;6.914;2022-08-05T03:06:25;5.28;;;3.58;;
52724;SDS011;38621;52.830;6.914;2022-08-05T03:08:52;7.32;;;3.90;;
52724;SDS011;38621;52.830;6.914;2022-08-05T03:11:22;4.55;;;3.05;;
52724;SDS011;38621;52.830;6.914;2022-08-05T03:13:51;5.20;;;3.22;;
52724;SDS011;38621;52.830;6.914;2022-08-05T03:16:18;5.07;;;3.40;;
52724;SDS011;38621;52.830;6.914;2022-08-05T03:18:44;4.53;;;3.30;;
52724;SDS011;38621;52.830;6.914;2022-08-05T03:21:10;5.07;;;3.08;;
52724;SDS011;38621;52.830;6.914;2022-08-05T03:23:37;7.10;;;3.28;;
52724;SDS011;38621;52.830;6.914;2022-08-05T03:26:06;4.25;;;3.10;;
52724;SDS011;38621;52.830;6.914;2022-08-05T03:28:32;4.88;;;3.42;;
52724;SDS011;38621;52.830;6.914;2022-08-05T03:30:58;5.30;;;3.05;;
52724;SDS011;38621;52.830;6.914;2022-08-05T03:33:26;4.65;;;3.50;;
52724;SDS011;38621;52.830;6.914;2022-08-05T03:35:53;4.40;;;3.22;;
52724;SDS011;38621;52.830;6.914;2022-08-05T03:38:21;3.67;;;2.90;;
52724;SDS011;38621;52.830;6.914;2022-08-05T03:40:47;5.40;;;3.30;;
52724;SDS011;38621;52.830;6.914;2022-08-05T03:43:13;4.68;;;3.20;;
52724;SDS011;38621;52.830;6.914;2022-08-05T03:45:40;4.55;;;3.30;;
52724;SDS011;38621;52.830;6.914;2022-08-05T03:48:05;5.35;;;3.50;;
52724;SDS011;38621;52.830;6.914;2022-08-05T03:50:36;4.95;;;3.53;;
52724;SDS011;38621;52.830;6.914;2022-08-05T03:53:09;4.07;;;3.15;;
52724;SDS011;38621;52.830;6.914;2022-08-05T03:55:38;5.25;;;2.90;;
52724;SDS011;38621;52.830;6.914;2022-08-05T03:58:09;6.13;;;3.50;;
52724;SDS011;38621;52.830;6.914;2022-08-05T04:00:40;4.47;;;3.50;;
52724;SDS011;38621;52.830;6.914;2022-08-05T04:03:08;3.75;;;2.83;;
52724;SDS011;38621;52.830;6.914;2022-08-05T04:05:37;6.45;;;3.33;;
52724;SDS011;38621;52.830;6.914;2022-08-05T04:08:08;4.50;;;3.35;;
52724;SDS011;38621;52.830;6.914;2022-08-05T04:10:34;4.25;;;3.22;;
52724;SDS011;38621;52.830;6.914;2022-08-05T04:13:01;5.68;;;3.30;;
52724;SDS011;38621;52.830;6.914;2022-08-05T04:15:27;4.80;;;3.10;;
52724;SDS011;38621;52.830;6.914;2022-08-05T04:17:53;5.28;;;3.38;;
52724;SDS011;38621;52.830;6.914;2022-08-05T04:20:20;6.03;;;3.58;;
52724;SDS011;38621;52.830;6.914;2022-08-05T04:22:47;4.50;;;3.17;;
52724;SDS011;38621;52.830;6.914;2022-08-05T04:25:13;5.55;;;3.45;;
52724;SDS011;38621;52.830;6.914;2022-08-05T04:27:39;5.65;;;3.25;;
52724;SDS011;38621;52.830;6.914;2022-08-05T04:30:05;5.82;;;3.20;;
52724;SDS011;38621;52.830;6.914;2022-08-05T04:32:32;4.88;;;2.90;;
52724;SDS011;38621;52.830;6.914;2022-08-05T04:34:58;5.00;;;3.10;;
52724;SDS011;38621;52.830;6.914;2022-08-05T04:37:23;6.05;;;3.40;;
52724;SDS011;38621;52.830;6.914;2022-08-05T04:39:49;7.28;;;3.63;;
52724;SDS011;38621;52.830;6.914;2022-08-05T04:42:15;6.28;;;3.72;;
52724;SDS011;38621;52.830;6.914;2022-08-05T04:44:40;4.45;;;3.25;;
52724;SDS011;38621;52.830;6.914;2022-08-05T04:47:06;7.03;;;3.00;;
52724;SDS011;38621;52.830;6.914;2022-08-05T04:49:32;5.03;;;2.83;;
52724;SDS011;38621;52.830;6.914;2022-08-05T04:51:58;4.43;;;3.08;;
52724;SDS011;38621;52.830;6.914;2022-08-05T04:54:24;3.55;;;2.80;;
52724;SDS011;38621;52.830;6.914;2022-08-05T04:56:53;3.80;;;3.20;;
52724;SDS011;38621;52.830;6.914;2022-08-05T04:59:19;5.22;;;3.25;;
52724;SDS011;38621;52.830;6.914;2022-08-05T05:01:46;5.20;;;3.30;;
52724;SDS011;38621;52.830;6.914;2022-08-05T05:04:15;5.32;;;3.28;;
52724;SDS011;38621;52.830;6.914;2022-08-05T05:06:40;4.65;;;3.53;;
52724;SDS011;38621;52.830;6.914;2022-08-05T05:09:06;5.63;;;3.20;;
52724;SDS011;38621;52.830;6.914;2022-08-05T05:11:32;5.88;;;3.10;;
52724;SDS011;38621;52.830;6.914;2022-08-05T05:13:57;4.22;;;3.20;;
52724;SDS011;38621;52.830;6.914;2022-08-05T05:16:23;5.20;;;3.22;;
52724;SDS011;38621;52.830;6.914;2022-08-05T05:18:49;5.43;;;3.15;;
52724;SDS011;38621;52.830;6.914;2022-08-05T05:21:15;5.25;;;3.55;;
52724;SDS011;38621;52.830;6.914;2022-08-05T05:23:40;4.68;;;3.17;;
52724;SDS011;38621;52.830;6.914;2022-08-05T05:26:06;4.75;;;2.85;;
52724;SDS011;38621;52.830;6.914;2022-08-05T05:28:32;4.93;;;3.13;;
52724;SDS011;38621;52.830;6.914;2022-08-05T05:30:57;3.35;;;3.00;;
52724;SDS011;38621;52.830;6.914;2022-08-05T05:33:23;4.30;;;2.78;;
52724;SDS011;38621;52.830;6.914;2022-08-05T05:35:49;4.28;;;3.10;;
52724;SDS011;38621;52.830;6.914;2022-08-05T05:38:15;5.00;;;3.17;;
52724;SDS011;38621;52.830;6.914;2022-08-05T05:40:42;4.88;;;2.92;;
52724;SDS011;38621;52.830;6.914;2022-08-05T05:43:08;4.93;;;2.60;;
52724;SDS011;38621;52.830;6.914;2022-08-05T05:45:34;4.80;;;2.72;;
52724;SDS011;38621;52.830;6.914;2022-08-05T05:48:00;3.13;;;2.45;;
52724;SDS011;38621;52.830;6.914;2022-08-05T05:50:25;3.70;;;2.63;;
52724;SDS011;38621;52.830;6.914;2022-08-05T05:52:51;4.50;;;2.72;;
52724;SDS011;38621;52.830;6.914;2022-08-05T05:55:18;4.30;;;2.53;;
52724;SDS011;38621;52.830;6.914;2022-08-05T05:57:45;3.65;;;2.40;;
52724;SDS011;38621;52.830;6.914;2022-08-05T06:00:15;4.00;;;2.45;;
52724;SDS011;38621;52.830;6.914;2022-08-05T06:02:44;4.38;;;2.75;;
52724;SDS011;38621;52.830;6.914;2022-08-05T06:05:12;4.22;;;2.45;;
52724;SDS011;38621;52.830;6.914;2022-08-05T06:07:39;3.25;;;2.30;;
52724;SDS011;38621;52.830;6.914;2022-08-05T06:10:05;4.28;;;2.58;;
52724;SDS011;38621;52.830;6.914;2022-08-05T06:12:32;3.58;;;2.38;;
52724;SDS011;38621;52.830;6.914;2022-08-05T06:14:59;3.53;;;2.33;;
52724;SDS011;38621;52.830;6.914;2022-08-05T06:17:26;3.83;;;2.58;;
52724;SDS011;38621;52.830;6.914;2022-08-05T06:19:52;4.38;;;2.20;;
52724;SDS011;38621;52.830;6.914;2022-08-05T06:22:21;3.70;;;2.50;;
52724;SDS011;38621;52.830;6.914;2022-08-05T06:24:48;3.80;;;2.60;;
52724;SDS011;38621;52.830;6.914;2022-08-05T06:27:14;4.03;;;2.40;;
52724;SDS011;38621;52.830;6.914;2022-08-05T06:29:40;3.28;;;2.38;;
52724;SDS011;38621;52.830;6.914;2022-08-05T06:32:06;3.67;;;2.30;;
52724;SDS011;38621;52.830;6.914;2022-08-05T06:34:32;3.88;;;2.20;;
52724;SDS011;38621;52.830;6.914;2022-08-05T06:36:58;4.70;;;2.65;;
52724;SDS011;38621;52.830;6.914;2022-08-05T06:39:23;3.15;;;2.25;;
52724;SDS011;38621;52.830;6.914;2022-08-05T06:41:50;2.60;;;2.10;;
52724;SDS011;38621;52.830;6.914;2022-08-05T06:44:15;3.88;;;2.30;;
52724;SDS011;38621;52.830;6.914;2022-08-05T06:46:41;3.42;;;2.15;;
52724;SDS011;38621;52.830;6.914;2022-08-05T06:49:07;3.45;;;2.17;;
52724;SDS011;38621;52.830;6.914;2022-08-05T06:51:32;4.65;;;2.40;;
52724;SDS011;38621;52.830;6.914;2022-08-05T06:53:59;3.13;;;2.15;;
52724;SDS011;38621;52.830;6.914;2022-08-05T06:56:26;3.35;;;2.30;;
52724;SDS011;38621;52.830;6.914;2022-08-05T06:58:53;2.78;;;2.10;;
52724;SDS011;38621;52.830;6.914;2022-08-05T07:01:19;3.83;;;2.53;;
52724;SDS011;38621;52.830;6.914;2022-08-05T07:03:45;6.18;;;2.20;;
52724;SDS011;38621;52.830;6.914;2022-08-05T07:06:10;4.15;;;2.03;;
52724;SDS011;38621;52.830;6.914;2022-08-05T07:08:36;3.38;;;1.85;;
52724;SDS011;38621;52.830;6.914;2022-08-05T07:11:02;3.28;;;2.13;;
52724;SDS011;38621;52.830;6.914;2022-08-05T07:13:28;2.60;;;1.60;;
52724;SDS011;38621;52.830;6.914;2022-08-05T07:16:13;3.97;;;1.60;;
52724;SDS011;38621;52.830;6.914;2022-08-05T07:18:57;3.15;;;1.83;;
52724;SDS011;38621;52.830;6.914;2022-08-05T07:21:23;3.75;;;1.50;;
52724;SDS011;38621;52.830;6.914;2022-08-05T07:23:49;2.90;;;1.90;;
52724;SDS011;38621;52.830;6.914;2022-08-05T07:26:14;2.38;;;1.40;;
52724;SDS011;38621;52.830;6.914;2022-08-05T07:28:40;2.78;;;1.83;;
52724;SDS011;38621;52.830;6.914;2022-08-05T07:31:06;4.13;;;1.75;;
52724;SDS011;38621;52.830;6.914;2022-08-05T07:33:32;3.85;;;1.70;;
52724;SDS011;38621;52.830;6.914;2022-08-05T07:35:58;2.47;;;1.77;;
52724;SDS011;38621;52.830;6.914;2022-08-05T07:38:24;2.72;;;2.13;;
52724;SDS011;38621;52.830;6.914;2022-08-05T07:40:50;2.20;;;1.60;;
52724;SDS011;38621;52.830;6.914;2022-08-05T07:43:16;3.42;;;1.70;;
52724;SDS011;38621;52.830;6.914;2022-08-05T07:45:42;3.30;;;1.83;;
52724;SDS011;38621;52.830;6.914;2022-08-05T07:48:08;3.05;;;1.63;;
52724;SDS011;38621;52.830;6.914;2022-08-05T07:50:35;4.03;;;1.40;;
52724;SDS011;38621;52.830;6.914;2022-08-05T07:53:00;3.00;;;1.50;;
52724;SDS011;38621;52.830;6.914;2022-08-05T07:55:26;2.33;;;1.67;;
52724;SDS011;38621;52.830;6.914;2022-08-05T07:57:52;6.15;;;1.67;;
52724;SDS011;38621;52.830;6.914;2022-08-05T08:00:17;2.50;;;1.63;;
52724;SDS011;38621;52.830;6.914;2022-08-05T08:02:43;2.75;;;1.50;;
52724;SDS011;38621;52.830;6.914;2022-08-05T08:05:09;2.58;;;1.60;;
52724;SDS011;38621;52.830;6.914;2022-08-05T08:07:35;2.33;;;1.30;;
52724;SDS011;38621;52.830;6.914;2022-08-05T08:10:01;2.20;;;1.45;;
52724;SDS011;38621;52.830;6.914;2022-08-05T08:12:28;2.35;;;1.35;;
52724;SDS011;38621;52.830;6.914;2022-08-05T08:14:53;2.55;;;1.30;;
52724;SDS011;38621;52.830;6.914;2022-08-05T08:17:19;3.40;;;1.35;;
52724;SDS011;38621;52.830;6.914;2022-08-05T08:19:45;3.28;;;1.33;;
52724;SDS011;38621;52.830;6.914;2022-08-05T08:22:11;1.92;;;1.20;;
52724;SDS011;38621;52.830;6.914;2022-08-05T08:24:37;2.90;;;1.20;;
52724;SDS011;38621;52.830;6.914;2022-08-05T08:27:03;2.38;;;1.50;;
52724;SDS011;38621;52.830;6.914;2022-08-05T08:29:30;3.53;;;1.30;;
52724;SDS011;38621;52.830;6.914;2022-08-05T08:31:56;2.15;;;1.05;;
52724;SDS011;38621;52.830;6.914;2022-08-05T08:34:22;2.35;;;1.35;;
52724;SDS011;38621;52.830;6.914;2022-08-05T08:36:49;3.05;;;1.35;;
52724;SDS011;38621;52.830;6.914;2022-08-05T08:39:15;2.88;;;1.50;;
52724;SDS011;38621;52.830;6.914;2022-08-05T08:41:47;2.45;;;1.25;;
52724;SDS011;38621;52.830;6.914;2022-08-05T08:44:14;2.47;;;1.30;;
52724;SDS011;38621;52.830;6.914;2022-08-05T08:46:43;1.90;;;1.10;;
52724;SDS011;38621;52.830;6.914;2022-08-05T08:49:14;2.13;;;1.00;;
52724;SDS011;38621;52.830;6.914;2022-08-05T08:51:42;2.13;;;1.20;;
52724;SDS011;38621;52.830;6.914;2022-08-05T08:54:15;3.80;;;1.20;;
52724;SDS011;38621;52.830;6.914;2022-08-05T08:56:41;1.77;;;0.88;;
52724;SDS011;38621;52.830;6.914;2022-08-05T08:59:07;2.28;;;0.90;;
52724;SDS011;38621;52.830;6.914;2022-08-05T09:01:33;2.08;;;1.02;;
52724;SDS011;38621;52.830;6.914;2022-08-05T09:03:59;2.63;;;1.00;;
52724;SDS011;38621;52.830;6.914;2022-08-05T09:06:25;2.00;;;0.95;;
52724;SDS011;38621;52.830;6.914;2022-08-05T09:08:53;2.13;;;0.90;;
52724;SDS011;38621;52.830;6.914;2022-08-05T09:11:19;1.95;;;1.05;;
52724;SDS011;38621;52.830;6.914;2022-08-05T09:13:44;2.47;;;1.00;;
52724;SDS011;38621;52.830;6.914;2022-08-05T09:16:11;2.40;;;1.20;;
52724;SDS011;38621;52.830;6.914;2022-08-05T09:18:37;1.90;;;1.05;;
52724;SDS011;38621;52.830;6.914;2022-08-05T09:21:04;1.60;;;0.88;;
52724;SDS011;38621;52.830;6.914;2022-08-05T09:23:30;1.75;;;0.90;;
52724;SDS011;38621;52.830;6.914;2022-08-05T09:26:05;2.00;;;0.90;;
52724;SDS011;38621;52.830;6.914;2022-08-05T09:28:34;1.40;;;0.80;;
52724;SDS011;38621;52.830;6.914;2022-08-05T09:31:08;2.03;;;0.80;;
52724;SDS011;38621;52.830;6.914;2022-08-05T09:36:20;1.90;;;0.75;;
52724;SDS011;38621;52.830;6.914;2022-08-05T09:39:00;1.42;;;0.70;;
52724;SDS011;38621;52.830;6.914;2022-08-05T09:41:27;1.40;;;0.73;;
52724;SDS011;38621;52.830;6.914;2022-08-05T09:43:53;2.20;;;1.00;;
52724;SDS011;38621;52.830;6.914;2022-08-05T09:46:23;1.92;;;0.70;;
52724;SDS011;38621;52.830;6.914;2022-08-05T09:48:51;2.92;;;0.73;;
52724;SDS011;38621;52.830;6.914;2022-08-05T09:51:26;2.67;;;0.70;;
52724;SDS011;38621;52.830;6.914;2022-08-05T09:53:56;1.42;;;0.65;;
52724;SDS011;38621;52.830;6.914;2022-08-05T09:56:32;2.35;;;0.60;;
52724;SDS011;38621;52.830;6.914;2022-08-05T09:59:03;1.60;;;0.90;;
52724;SDS011;38621;52.830;6.914;2022-08-05T10:01:30;2.50;;;1.00;;
52724;SDS011;38621;52.830;6.914;2022-08-05T10:06:39;1.90;;;0.70;;
52724;SDS011;38621;52.830;6.914;2022-08-05T10:11:36;1.42;;;0.77;;
52724;SDS011;38621;52.830;6.914;2022-08-05T10:14:21;1.58;;;0.77;;
52724;SDS011;38621;52.830;6.914;2022-08-05T10:16:50;3.33;;;0.80;;
52724;SDS011;38621;52.830;6.914;2022-08-05T10:19:16;1.48;;;0.70;;
52724;SDS011;38621;52.830;6.914;2022-08-05T10:21:43;1.02;;;0.57;;
52724;SDS011;38621;52.830;6.914;2022-08-05T10:24:10;1.35;;;0.50;;
52724;SDS011;38621;52.830;6.914;2022-08-05T10:26:40;1.55;;;0.60;;
52724;SDS011;38621;52.830;6.914;2022-08-05T10:29:07;1.63;;;0.60;;
52724;SDS011;38621;52.830;6.914;2022-08-05T10:31:33;0.98;;;0.60;;
52724;SDS011;38621;52.830;6.914;2022-08-05T10:34:00;2.38;;;0.50;;
52724;SDS011;38621;52.830;6.914;2022-08-05T10:36:26;1.60;;;0.60;;
52724;SDS011;38621;52.830;6.914;2022-08-05T10:38:55;1.60;;;0.60;;
52724;SDS011;38621;52.830;6.914;2022-08-05T10:41:27;1.05;;;0.40;;
52724;SDS011;38621;52.830;6.914;2022-08-05T10:43:58;1.65;;;0.52;;
52724;SDS011;38621;52.830;6.914;2022-08-05T10:49:35;1.13;;;0.50;;
52724;SDS011;38621;52.830;6.914;2022-08-05T10:52:41;0.93;;;0.40;;
52724;SDS011;38621;52.830;6.914;2022-08-05T10:55:16;1.75;;;0.60;;
52724;SDS011;38621;52.830;6.914;2022-08-05T10:57:43;1.17;;;0.43;;
52724;SDS011;38621;52.830;6.914;2022-08-05T11:05:29;1.00;;;0.60;;
52724;SDS011;38621;52.830;6.914;2022-08-05T11:08:03;1.10;;;0.50;;
52724;SDS011;38621;52.830;6.914;2022-08-05T11:10:31;1.10;;;0.40;;
52724;SDS011;38621;52.830;6.914;2022-08-05T11:12:58;1.65;;;0.50;;
52724;SDS011;38621;52.830;6.914;2022-08-05T11:15:25;2.58;;;0.60;;
52724;SDS011;38621;52.830;6.914;2022-08-05T11:20:40;1.10;;;0.38;;
52724;SDS011;38621;52.830;6.914;2022-08-05T11:23:26;0.63;;;0.35;;
52724;SDS011;38621;52.830;6.914;2022-08-05T11:25:59;3.10;;;0.50;;
52724;SDS011;38621;52.830;6.914;2022-08-05T11:28:49;1.60;;;0.52;;
52724;SDS011;38621;52.830;6.914;2022-08-05T11:36:12;1.65;;;0.30;;
52724;SDS011;38621;52.830;6.914;2022-08-05T11:41:27;0.57;;;0.30;;
52724;SDS011;38621;52.830;6.914;2022-08-05T11:44:05;0.80;;;0.43;;
52724;SDS011;38621;52.830;6.914;2022-08-05T11:49:19;0.95;;;0.65;;
52724;SDS011;38621;52.830;6.914;2022-08-05T11:51:50;1.67;;;0.30;;
52724;SDS011;38621;52.830;6.914;2022-08-05T11:54:21;1.52;;;0.30;;
52724;SDS011;38621;52.830;6.914;2022-08-05T11:56:51;0.60;;;0.30;;
52724;SDS011;38621;52.830;6.914;2022-08-05T11:59:23;1.85;;;0.30;;
52724;SDS011;38621;52.830;6.914;2022-08-05T12:01:54;0.40;;;0.20;;
52724;SDS011;38621;52.830;6.914;2022-08-05T12:04:22;1.83;;;0.38;;
52724;SDS011;38621;52.830;6.914;2022-08-05T12:06:48;0.70;;;0.30;;
52724;SDS011;38621;52.830;6.914;2022-08-05T12:09:16;1.90;;;0.40;;
52724;SDS011;38621;52.830;6.914;2022-08-05T12:11:44;1.02;;;0.30;;
52724;SDS011;38621;52.830;6.914;2022-08-05T12:14:11;1.73;;;0.30;;
52724;SDS011;38621;52.830;6.914;2022-08-05T12:16:38;1.20;;;0.50;;
52724;SDS011;38621;52.830;6.914;2022-08-05T12:19:08;0.90;;;0.40;;
52724;SDS011;38621;52.830;6.914;2022-08-05T12:21:56;0.40;;;0.20;;
52724;SDS011;38621;52.830;6.914;2022-08-05T12:24:21;0.70;;;0.40;;
52724;SDS011;38621;52.830;6.914;2022-08-05T12:26:48;0.55;;;0.30;;
52724;SDS011;38621;52.830;6.914;2022-08-05T12:29:21;2.10;;;0.50;;
52724;SDS011;38621;52.830;6.914;2022-08-05T12:34:14;0.40;;;0.30;;
52724;SDS011;38621;52.830;6.914;2022-08-05T12:36:42;1.17;;;0.40;;
52724;SDS011;38621;52.830;6.914;2022-08-05T12:39:09;1.42;;;0.30;;
52724;SDS011;38621;52.830;6.914;2022-08-05T12:41:35;0.65;;;0.30;;
52724;SDS011;38621;52.830;6.914;2022-08-05T12:44:04;1.00;;;0.40;;
52724;SDS011;38621;52.830;6.914;2022-08-05T12:46:35;0.90;;;0.35;;
52724;SDS011;38621;52.830;6.914;2022-08-05T12:49:07;0.45;;;0.30;;
52724;SDS011;38621;52.830;6.914;2022-08-05T12:51:57;0.90;;;0.30;;
52724;SDS011;38621;52.830;6.914;2022-08-05T12:54:27;2.58;;;0.40;;
52724;SDS011;38621;52.830;6.914;2022-08-05T12:57:03;0.50;;;0.30;;
52724;SDS011;38621;52.830;6.914;2022-08-05T12:59:32;2.05;;;0.43;;
52724;SDS011;38621;52.830;6.914;2022-08-05T13:02:07;0.95;;;0.50;;
52724;SDS011;38621;52.830;6.914;2022-08-05T13:04:36;1.77;;;0.40;;
52724;SDS011;38621;52.830;6.914;2022-08-05T13:07:07;0.80;;;0.40;;
52724;SDS011;38621;52.830;6.914;2022-08-05T13:09:39;1.48;;;0.40;;
52724;SDS011;38621;52.830;6.914;2022-08-05T13:17:16;1.48;;;0.43;;
52724;SDS011;38621;52.830;6.914;2022-08-05T13:22:35;1.45;;;0.40;;
52724;SDS011;38621;52.830;6.914;2022-08-05T13:25:06;1.67;;;0.40;;
52724;SDS011;38621;52.830;6.914;2022-08-05T13:27:34;1.50;;;0.40;;
52724;SDS011;38621;52.830;6.914;2022-08-05T13:30:02;1.88;;;0.40;;
52724;SDS011;38621;52.830;6.914;2022-08-05T13:32:31;0.82;;;0.40;;
52724;SDS011;38621;52.830;6.914;2022-08-05T13:34:56;0.80;;;0.30;;
52724;SDS011;38621;52.830;6.914;2022-08-05T13:37:23;1.45;;;1.05;;
52724;SDS011;38621;52.830;6.914;2022-08-05T13:39:52;1.02;;;0.30;;
52724;SDS011;38621;52.830;6.914;2022-08-05T13:42:19;1.67;;;0.50;;
52724;SDS011;38621;52.830;6.914;2022-08-05T13:44:49;2.00;;;0.40;;
52724;SDS011;38621;52.830;6.914;2022-08-05T13:47:18;1.52;;;0.45;;
52724;SDS011;38621;52.830;6.914;2022-08-05T13:49:45;0.63;;;0.30;;
52724;SDS011;38621;52.830;6.914;2022-08-05T13:54:40;1.05;;;0.40;;
52724;SDS011;38621;52.830;6.914;2022-08-05T13:57:10;0.95;;;0.30;;
52724;SDS011;38621;52.830;6.914;2022-08-05T13:59:37;1.25;;;0.50;;
52724;SDS011;38621;52.830;6.914;2022-08-05T14:02:04;0.68;;;0.30;;
52724;SDS011;38621;52.830;6.914;2022-08-05T14:04:33;1.23;;;0.30;;
52724;SDS011;38621;52.830;6.914;2022-08-05T14:07:25;0.88;;;0.40;;
52724;SDS011;38621;52.830;6.914;2022-08-05T14:09:53;0.98;;;0.30;;
52724;SDS011;38621;52.830;6.914;2022-08-05T14:12:19;0.70;;;0.40;;
52724;SDS011;38621;52.830;6.914;2022-08-05T14:14:44;0.95;;;0.30;;
52724;SDS011;38621;52.830;6.914;2022-08-05T14:17:10;1.27;;;0.30;;
52724;SDS011;38621;52.830;6.914;2022-08-05T14:19:37;1.60;;;0.40;;
52724;SDS011;38621;52.830;6.914;2022-08-05T14:22:03;0.57;;;0.28;;
52724;SDS011;38621;52.830;6.914;2022-08-05T14:24:29;1.05;;;0.52;;
52724;SDS011;38621;52.830;6.914;2022-08-05T14:26:54;0.95;;;0.50;;
52724;SDS011;38621;52.830;6.914;2022-08-05T14:29:20;1.52;;;0.40;;
52724;SDS011;38621;52.830;6.914;2022-08-05T14:31:46;0.85;;;0.30;;
52724;SDS011;38621;52.830;6.914;2022-08-05T14:34:11;0.75;;;0.30;;
52724;SDS011;38621;52.830;6.914;2022-08-05T14:36:37;1.02;;;0.30;;
52724;SDS011;38621;52.830;6.914;2022-08-05T14:39:03;0.52;;;0.40;;
52724;SDS011;38621;52.830;6.914;2022-08-05T14:41:30;0.70;;;0.35;;
52724;SDS011;38621;52.830;6.914;2022-08-05T14:43:56;1.00;;;0.40;;
52724;SDS011;38621;52.830;6.914;2022-08-05T14:46:22;1.13;;;0.38;;
52724;SDS011;38621;52.830;6.914;2022-08-05T14:48:49;0.85;;;0.30;;
52724;SDS011;38621;52.830;6.914;2022-08-05T14:51:15;0.90;;;0.38;;
52724;SDS011;38621;52.830;6.914;2022-08-05T14:53:41;0.90;;;0.30;;
52724;SDS011;38621;52.830;6.914;2022-08-05T14:56:07;1.75;;;0.40;;
52724;SDS011;38621;52.830;6.914;2022-08-05T14:58:32;0.50;;;0.38;;
52724;SDS011;38621;52.830;6.914;2022-08-05T15:00:58;0.55;;;0.30;;
52724;SDS011;38621;52.830;6.914;2022-08-05T15:03:25;1.23;;;0.38;;
52724;SDS011;38621;52.830;6.914;2022-08-05T15:05:51;0.28;;;0.25;;
52724;SDS011;38621;52.830;6.914;2022-08-05T15:08:17;0.95;;;0.40;;
52724;SDS011;38621;52.830;6.914;2022-08-05T15:10:42;1.02;;;0.22;;
52724;SDS011;38621;52.830;6.914;2022-08-05T15:13:08;1.52;;;0.30;;
52724;SDS011;38621;52.830;6.914;2022-08-05T15:15:34;0.57;;;0.30;;
52724;SDS011;38621;52.830;6.914;2022-08-05T15:17:59;0.88;;;0.30;;
52724;SDS011;38621;52.830;6.914;2022-08-05T15:20:25;0.95;;;0.40;;
52724;SDS011;38621;52.830;6.914;2022-08-05T15:22:51;1.90;;;0.40;;
52724;SDS011;38621;52.830;6.914;2022-08-05T15:25:16;0.50;;;0.25;;
52724;SDS011;38621;52.830;6.914;2022-08-05T15:27:42;0.85;;;0.30;;
52724;SDS011;38621;52.830;6.914;2022-08-05T15:30:08;1.67;;;0.50;;
52724;SDS011;38621;52.830;6.914;2022-08-05T15:32:35;1.80;;;0.47;;
52724;SDS011;38621;52.830;6.914;2022-08-05T15:35:01;0.73;;;0.40;;
52724;SDS011;38621;52.830;6.914;2022-08-05T15:37:27;0.95;;;0.40;;
52724;SDS011;38621;52.830;6.914;2022-08-05T15:39:53;1.20;;;0.45;;
52724;SDS011;38621;52.830;6.914;2022-08-05T15:42:21;2.75;;;0.43;;
52724;SDS011;38621;52.830;6.914;2022-08-05T15:44:48;1.50;;;0.40;;